sensor_id;sensor_type;location;lat;lon;timestamp;temperature;humidity
21085;DHT22;34247;50.064;19.970;2023-04-01T00:00:40;27.50;24.50
21085;DHT22;34247;50.064;19.970;2023-04-01T00:01:44;27.40;24.50
21085;DHT22;34247;50.064;19.970;2023-04-01T00:02:58;27.40;24.50
21085;DHT22;34247;50.064;19.970;2023-04-01T00:04:09;27.30;24.60
21085;DHT22;34247;50.064;19.970;2023-04-01T00:05:16;27.30;24.60
21085;DHT22;34247;50.064;19.970;2023-04-01T00:06:22;27.50;24.60
21085;DHT22;34247;50.064;19.970;2023-04-01T00:07:26;27.50;24.60
21085;DHT22;34247;50.064;19.970;2023-04-01T00:08:40;27.60;24.50
21085;DHT22;34247;50.064;19.970;2023-04-01T00:09:44;27.60;24.50
21085;DHT22;34247;50.064;19.970;2023-04-01T00:10:55;27.60;24.50
21085;DHT22;34247;50.064;19.970;2023-04-01T00:12:00;27.60;24.40
21085;DHT22;34247;50.064;19.970;2023-04-01T00:13:04;27.50;24.50
21085;DHT22;34247;50.064;19.970;2023-04-01T00:14:11;27.50;24.60
21085;DHT22;34247;50.064;19.970;2023-04-01T00:15:17;27.50;24.60
21085;DHT22;34247;50.064;19.970;2023-04-01T00:16:30;27.40;24.50
21085;DHT22;34247;50.064;19.970;2023-04-01T00:17:34;27.40;24.60
21085;DHT22;34247;50.064;19.970;2023-04-01T00:18:41;27.40;24.60
21085;DHT22;34247;50.064;19.970;2023-04-01T00:19:49;27.50;24.70
21085;DHT22;34247;50.064;19.970;2023-04-01T00:20:53;27.50;24.50
21085;DHT22;34247;50.064;19.970;2023-04-01T00:21:58;27.50;24.60
21085;DHT22;34247;50.064;19.970;2023-04-01T00:23:03;27.50;24.60
21085;DHT22;34247;50.064;19.970;2023-04-01T00:24:12;27.40;24.60
21085;DHT22;34247;50.064;19.970;2023-04-01T00:25:17;27.50;24.80
21085;DHT22;34247;50.064;19.970;2023-04-01T00:26:21;27.40;24.60
21085;DHT22;34247;50.064;19.970;2023-04-01T00:27:27;27.30;24.70
21085;DHT22;34247;50.064;19.970;2023-04-01T00:28:34;27.30;24.80
21085;DHT22;34247;50.064;19.970;2023-04-01T00:29:46;27.30;24.80
21085;DHT22;34247;50.064;19.970;2023-04-01T00:31:07;27.30;24.80
21085;DHT22;34247;50.064;19.970;2023-04-01T00:32:19;27.30;24.90
21085;DHT22;34247;50.064;19.970;2023-04-01T00:33:24;27.30;25.00
21085;DHT22;34247;50.064;19.970;2023-04-01T00:34:29;27.20;25.00
21085;DHT22;34247;50.064;19.970;2023-04-01T00:35:33;27.20;25.00
21085;DHT22;34247;50.064;19.970;2023-04-01T00:36:37;27.10;24.90
21085;DHT22;34247;50.064;19.970;2023-04-01T00:37:42;27.20;25.10
21085;DHT22;34247;50.064;19.970;2023-04-01T00:38:51;27.10;25.10
21085;DHT22;34247;50.064;19.970;2023-04-01T00:40:31;27.10;25.10
21085;DHT22;34247;50.064;19.970;2023-04-01T00:41:37;27.10;25.20
21085;DHT22;34247;50.064;19.970;2023-04-01T00:42:41;27.10;25.20
21085;DHT22;34247;50.064;19.970;2023-04-01T00:52:27;27.00;25.40
21085;DHT22;34247;50.064;19.970;2023-04-01T00:53:33;27.20;25.10
21085;DHT22;34247;50.064;19.970;2023-04-01T00:54:46;27.30;25.20
21085;DHT22;34247;50.064;19.970;2023-04-01T00:56:13;27.10;25.10
21085;DHT22;34247;50.064;19.970;2023-04-01T00:57:35;27.00;25.20
21085;DHT22;34247;50.064;19.970;2023-04-01T00:58:44;27.00;25.40
21085;DHT22;34247;50.064;19.970;2023-04-01T00:59:54;27.00;25.40
21085;DHT22;34247;50.064;19.970;2023-04-01T01:00:59;26.90;25.40
21085;DHT22;34247;50.064;19.970;2023-04-01T01:02:15;26.80;25.40
21085;DHT22;34247;50.064;19.970;2023-04-01T01:03:23;26.80;25.50
21085;DHT22;34247;50.064;19.970;2023-04-01T01:04:31;26.80;25.60
21085;DHT22;34247;50.064;19.970;2023-04-01T01:10:53;26.90;25.60
21085;DHT22;34247;50.064;19.970;2023-04-01T01:13:27;26.80;25.60
21085;DHT22;34247;50.064;19.970;2023-04-01T01:14:48;26.80;25.70
21085;DHT22;34247;50.064;19.970;2023-04-01T01:16:10;26.80;26.20
21085;DHT22;34247;50.064;19.970;2023-04-01T01:17:44;26.80;25.70
21085;DHT22;34247;50.064;19.970;2023-04-01T01:19:47;26.80;25.70
21085;DHT22;34247;50.064;19.970;2023-04-01T01:27:22;26.80;25.70
21085;DHT22;34247;50.064;19.970;2023-04-01T01:29:10;26.80;25.70
21085;DHT22;34247;50.064;19.970;2023-04-01T01:35:50;27.10;25.50
21085;DHT22;34247;50.064;19.970;2023-04-01T01:37:03;27.00;25.60
21085;DHT22;34247;50.064;19.970;2023-04-01T01:38:19;26.90;25.60
21085;DHT22;34247;50.064;19.970;2023-04-01T01:39:30;26.90;25.70
21085;DHT22;34247;50.064;19.970;2023-04-01T01:40:42;26.80;25.70
21085;DHT22;34247;50.064;19.970;2023-04-01T01:41:49;26.80;25.80
21085;DHT22;34247;50.064;19.970;2023-04-01T01:42:56;26.80;25.80
21085;DHT22;34247;50.064;19.970;2023-04-01T01:44:11;26.90;25.90
21085;DHT22;34247;50.064;19.970;2023-04-01T01:45:24;26.80;25.70
21085;DHT22;34247;50.064;19.970;2023-04-01T01:46:38;26.90;25.90
21085;DHT22;34247;50.064;19.970;2023-04-01T01:47:44;26.90;25.80
21085;DHT22;34247;50.064;19.970;2023-04-01T01:48:53;27.00;25.80
21085;DHT22;34247;50.064;19.970;2023-04-01T01:50:07;27.00;25.80
21085;DHT22;34247;50.064;19.970;2023-04-01T01:51:19;27.00;25.80
21085;DHT22;34247;50.064;19.970;2023-04-01T01:52:26;26.90;25.70
21085;DHT22;34247;50.064;19.970;2023-04-01T01:53:32;26.90;25.80
21085;DHT22;34247;50.064;19.970;2023-04-01T01:54:54;26.90;25.70
21085;DHT22;34247;50.064;19.970;2023-04-01T01:55:59;27.10;25.80
21085;DHT22;34247;50.064;19.970;2023-04-01T01:57:09;27.10;25.70
21085;DHT22;34247;50.064;19.970;2023-04-01T01:58:25;27.00;25.70
21085;DHT22;34247;50.064;19.970;2023-04-01T01:59:37;27.00;25.70
21085;DHT22;34247;50.064;19.970;2023-04-01T02:00:59;26.90;25.70
21085;DHT22;34247;50.064;19.970;2023-04-01T02:02:16;27.00;25.80
21085;DHT22;34247;50.064;19.970;2023-04-01T02:03:23;26.90;25.80
21085;DHT22;34247;50.064;19.970;2023-04-01T02:04:37;27.00;25.80
21085;DHT22;34247;50.064;19.970;2023-04-01T02:05:45;27.00;25.80
21085;DHT22;34247;50.064;19.970;2023-04-01T02:06:58;27.00;25.70
21085;DHT22;34247;50.064;19.970;2023-04-01T02:08:24;26.90;25.80
21085;DHT22;34247;50.064;19.970;2023-04-01T02:09:38;26.90;25.80
21085;DHT22;34247;50.064;19.970;2023-04-01T02:10:49;26.90;25.90
21085;DHT22;34247;50.064;19.970;2023-04-01T02:12:15;26.90;25.80
21085;DHT22;34247;50.064;19.970;2023-04-01T02:13:48;26.80;25.80
21085;DHT22;34247;50.064;19.970;2023-04-01T02:15:11;26.90;25.90
21085;DHT22;34247;50.064;19.970;2023-04-01T02:16:31;26.90;26.00
21085;DHT22;34247;50.064;19.970;2023-04-01T02:17:44;26.90;25.90
21085;DHT22;34247;50.064;19.970;2023-04-01T02:18:51;26.90;25.90
21085;DHT22;34247;50.064;19.970;2023-04-01T02:20:09;26.80;25.80
21085;DHT22;34247;50.064;19.970;2023-04-01T02:21:27;26.90;25.90
21085;DHT22;34247;50.064;19.970;2023-04-01T02:22:43;27.00;25.90
21085;DHT22;34247;50.064;19.970;2023-04-01T02:23:54;26.90;25.70
21085;DHT22;34247;50.064;19.970;2023-04-01T02:25:12;26.90;25.80
21085;DHT22;34247;50.064;19.970;2023-04-01T02:26:31;27.00;25.90
21085;DHT22;34247;50.064;19.970;2023-04-01T02:27:39;26.90;25.90
21085;DHT22;34247;50.064;19.970;2023-04-01T02:28:54;26.80;25.80
21085;DHT22;34247;50.064;19.970;2023-04-01T02:30:04;26.80;25.90
21085;DHT22;34247;50.064;19.970;2023-04-01T02:31:21;26.80;25.90
21085;DHT22;34247;50.064;19.970;2023-04-01T02:32:38;26.80;26.00
21085;DHT22;34247;50.064;19.970;2023-04-01T02:33:52;26.80;26.00
21085;DHT22;34247;50.064;19.970;2023-04-01T02:35:02;26.80;26.00
21085;DHT22;34247;50.064;19.970;2023-04-01T02:36:18;26.80;26.00
21085;DHT22;34247;50.064;19.970;2023-04-01T02:37:23;26.80;26.10
21085;DHT22;34247;50.064;19.970;2023-04-01T02:38:36;26.90;26.00
21085;DHT22;34247;50.064;19.970;2023-04-01T02:39:44;26.80;25.90
21085;DHT22;34247;50.064;19.970;2023-04-01T02:40:51;26.80;25.90
21085;DHT22;34247;50.064;19.970;2023-04-01T02:42:14;26.80;26.00
21085;DHT22;34247;50.064;19.970;2023-04-01T02:43:22;26.90;26.10
21085;DHT22;34247;50.064;19.970;2023-04-01T02:44:32;26.80;26.00
21085;DHT22;34247;50.064;19.970;2023-04-01T02:45:38;26.90;26.10
21085;DHT22;34247;50.064;19.970;2023-04-01T02:46:52;26.90;26.00
21085;DHT22;34247;50.064;19.970;2023-04-01T02:47:59;26.80;26.00
21085;DHT22;34247;50.064;19.970;2023-04-01T02:49:03;26.80;25.90
21085;DHT22;34247;50.064;19.970;2023-04-01T02:50:13;26.80;26.10
21085;DHT22;34247;50.064;19.970;2023-04-01T02:51:19;26.80;26.00
21085;DHT22;34247;50.064;19.970;2023-04-01T02:52:24;26.70;26.00
21085;DHT22;34247;50.064;19.970;2023-04-01T02:53:30;26.70;26.10
21085;DHT22;34247;50.064;19.970;2023-04-01T02:54:41;26.70;26.10
21085;DHT22;34247;50.064;19.970;2023-04-01T02:55:45;26.80;26.20
21085;DHT22;34247;50.064;19.970;2023-04-01T02:56:55;26.80;26.10
21085;DHT22;34247;50.064;19.970;2023-04-01T02:57:59;26.80;26.10
21085;DHT22;34247;50.064;19.970;2023-04-01T02:59:10;26.80;26.10
21085;DHT22;34247;50.064;19.970;2023-04-01T03:00:15;26.80;26.10
21085;DHT22;34247;50.064;19.970;2023-04-01T03:01:22;26.70;26.10
21085;DHT22;34247;50.064;19.970;2023-04-01T03:02:31;26.70;26.20
21085;DHT22;34247;50.064;19.970;2023-04-01T03:03:35;26.80;26.20
21085;DHT22;34247;50.064;19.970;2023-04-01T03:04:39;26.80;26.10
21085;DHT22;34247;50.064;19.970;2023-04-01T03:05:45;26.70;26.10
21085;DHT22;34247;50.064;19.970;2023-04-01T03:06:49;26.70;26.20
21085;DHT22;34247;50.064;19.970;2023-04-01T03:07:54;26.70;26.20
21085;DHT22;34247;50.064;19.970;2023-04-01T03:08:58;26.70;26.30
21085;DHT22;34247;50.064;19.970;2023-04-01T03:10:02;26.70;26.20
21085;DHT22;34247;50.064;19.970;2023-04-01T03:11:12;26.70;26.40
21085;DHT22;34247;50.064;19.970;2023-04-01T03:12:18;26.70;26.20
21085;DHT22;34247;50.064;19.970;2023-04-01T03:13:32;26.80;26.20
21085;DHT22;34247;50.064;19.970;2023-04-01T03:14:43;26.70;26.10
21085;DHT22;34247;50.064;19.970;2023-04-01T03:15:47;26.70;26.20
21085;DHT22;34247;50.064;19.970;2023-04-01T03:16:54;26.70;26.10
21085;DHT22;34247;50.064;19.970;2023-04-01T03:18:01;26.70;26.20
21085;DHT22;34247;50.064;19.970;2023-04-01T03:19:22;26.70;26.20
21085;DHT22;34247;50.064;19.970;2023-04-01T03:20:36;26.70;26.20
21085;DHT22;34247;50.064;19.970;2023-04-01T03:21:41;26.70;26.20
21085;DHT22;34247;50.064;19.970;2023-04-01T03:22:44;26.70;26.10
21085;DHT22;34247;50.064;19.970;2023-04-01T03:23:57;26.70;26.20
21085;DHT22;34247;50.064;19.970;2023-04-01T03:25:07;26.70;26.10
21085;DHT22;34247;50.064;19.970;2023-04-01T03:26:12;26.60;26.10
21085;DHT22;34247;50.064;19.970;2023-04-01T03:27:17;26.70;26.20
21085;DHT22;34247;50.064;19.970;2023-04-01T03:28:24;26.60;26.10
21085;DHT22;34247;50.064;19.970;2023-04-01T03:29:27;26.70;26.20
21085;DHT22;34247;50.064;19.970;2023-04-01T03:30:32;26.70;26.10
21085;DHT22;34247;50.064;19.970;2023-04-01T03:31:43;26.80;26.10
21085;DHT22;34247;50.064;19.970;2023-04-01T03:32:47;26.80;26.00
21085;DHT22;34247;50.064;19.970;2023-04-01T03:33:57;26.80;26.00
21085;DHT22;34247;50.064;19.970;2023-04-01T03:35:02;26.80;26.10
21085;DHT22;34247;50.064;19.970;2023-04-01T03:36:10;26.80;26.10
21085;DHT22;34247;50.064;19.970;2023-04-01T03:37:16;26.80;26.00
21085;DHT22;34247;50.064;19.970;2023-04-01T03:38:20;26.70;26.10
21085;DHT22;34247;50.064;19.970;2023-04-01T03:39:26;26.60;26.10
21085;DHT22;34247;50.064;19.970;2023-04-01T03:40:31;26.60;26.20
21085;DHT22;34247;50.064;19.970;2023-04-01T03:41:41;26.70;26.30
21085;DHT22;34247;50.064;19.970;2023-04-01T03:42:48;26.70;26.20
21085;DHT22;34247;50.064;19.970;2023-04-01T03:43:57;26.60;26.10
21085;DHT22;34247;50.064;19.970;2023-04-01T03:45:02;26.60;26.20
21085;DHT22;34247;50.064;19.970;2023-04-01T03:46:23;26.60;26.30
21085;DHT22;34247;50.064;19.970;2023-04-01T03:47:37;26.60;26.30
21085;DHT22;34247;50.064;19.970;2023-04-01T03:48:42;26.60;26.30
21085;DHT22;34247;50.064;19.970;2023-04-01T03:49:55;26.60;26.20
21085;DHT22;34247;50.064;19.970;2023-04-01T03:51:00;26.60;26.30
21085;DHT22;34247;50.064;19.970;2023-04-01T03:52:12;26.50;26.30
21085;DHT22;34247;50.064;19.970;2023-04-01T03:53:22;26.50;26.30
21085;DHT22;34247;50.064;19.970;2023-04-01T03:54:30;26.50;26.30
21085;DHT22;34247;50.064;19.970;2023-04-01T03:55:38;26.50;26.40
21085;DHT22;34247;50.064;19.970;2023-04-01T03:56:51;26.50;26.40
21085;DHT22;34247;50.064;19.970;2023-04-01T03:57:59;26.50;26.50
21085;DHT22;34247;50.064;19.970;2023-04-01T03:59:13;26.60;26.50
21085;DHT22;34247;50.064;19.970;2023-04-01T04:00:25;26.60;26.40
21085;DHT22;34247;50.064;19.970;2023-04-01T04:01:30;26.60;26.40
21085;DHT22;34247;50.064;19.970;2023-04-01T04:02:37;26.60;26.40
21085;DHT22;34247;50.064;19.970;2023-04-01T04:03:50;26.60;26.40
21085;DHT22;34247;50.064;19.970;2023-04-01T04:04:55;26.60;26.40
21085;DHT22;34247;50.064;19.970;2023-04-01T04:05:59;26.60;26.40
21085;DHT22;34247;50.064;19.970;2023-04-01T04:07:13;26.60;26.40
21085;DHT22;34247;50.064;19.970;2023-04-01T04:08:24;26.60;26.40
21085;DHT22;34247;50.064;19.970;2023-04-01T04:09:32;26.60;26.50
21085;DHT22;34247;50.064;19.970;2023-04-01T04:10:47;26.60;26.40
21085;DHT22;34247;50.064;19.970;2023-04-01T04:12:01;26.60;26.40
21085;DHT22;34247;50.064;19.970;2023-04-01T04:13:10;26.60;26.40
21085;DHT22;34247;50.064;19.970;2023-04-01T04:14:14;26.60;26.40
21085;DHT22;34247;50.064;19.970;2023-04-01T04:15:23;26.60;26.40
21085;DHT22;34247;50.064;19.970;2023-04-01T04:16:35;26.70;26.40
21085;DHT22;34247;50.064;19.970;2023-04-01T04:17:46;26.70;26.40
21085;DHT22;34247;50.064;19.970;2023-04-01T04:18:51;26.70;26.80
21085;DHT22;34247;50.064;19.970;2023-04-01T04:19:57;26.70;26.30
21085;DHT22;34247;50.064;19.970;2023-04-01T04:21:01;26.70;26.30
21085;DHT22;34247;50.064;19.970;2023-04-01T04:22:20;26.70;26.70
21085;DHT22;34247;50.064;19.970;2023-04-01T04:23:24;26.70;26.30
21085;DHT22;34247;50.064;19.970;2023-04-01T04:24:33;26.70;26.30
21085;DHT22;34247;50.064;19.970;2023-04-01T04:25:41;26.70;26.40
21085;DHT22;34247;50.064;19.970;2023-04-01T04:26:56;26.70;26.30
21085;DHT22;34247;50.064;19.970;2023-04-01T04:28:13;26.70;26.30
21085;DHT22;34247;50.064;19.970;2023-04-01T04:29:31;26.80;26.40
21085;DHT22;34247;50.064;19.970;2023-04-01T04:30:35;26.80;26.30
21085;DHT22;34247;50.064;19.970;2023-04-01T04:31:50;26.80;26.30
21085;DHT22;34247;50.064;19.970;2023-04-01T04:32:54;26.80;26.20
21085;DHT22;34247;50.064;19.970;2023-04-01T04:34:06;26.80;26.20
21085;DHT22;34247;50.064;19.970;2023-04-01T04:35:17;26.80;26.20
21085;DHT22;34247;50.064;19.970;2023-04-01T04:36:22;26.80;26.20
21085;DHT22;34247;50.064;19.970;2023-04-01T04:37:26;26.70;26.20
21085;DHT22;34247;50.064;19.970;2023-04-01T04:38:31;26.70;26.30
21085;DHT22;34247;50.064;19.970;2023-04-01T04:39:38;26.70;26.30
21085;DHT22;34247;50.064;19.970;2023-04-01T04:40:49;26.70;26.30
21085;DHT22;34247;50.064;19.970;2023-04-01T04:41:53;26.70;26.30
21085;DHT22;34247;50.064;19.970;2023-04-01T04:43:04;26.70;26.30
21085;DHT22;34247;50.064;19.970;2023-04-01T04:44:14;26.70;26.30
21085;DHT22;34247;50.064;19.970;2023-04-01T04:45:27;26.70;26.30
21085;DHT22;34247;50.064;19.970;2023-04-01T04:46:34;26.70;26.40
21085;DHT22;34247;50.064;19.970;2023-04-01T04:47:37;26.70;26.40
21085;DHT22;34247;50.064;19.970;2023-04-01T04:48:41;26.70;26.40
21085;DHT22;34247;50.064;19.970;2023-04-01T04:49:51;26.70;26.40
21085;DHT22;34247;50.064;19.970;2023-04-01T04:50:56;26.70;26.40
21085;DHT22;34247;50.064;19.970;2023-04-01T04:52:00;26.70;26.40
21085;DHT22;34247;50.064;19.970;2023-04-01T04:53:12;26.70;26.40
21085;DHT22;34247;50.064;19.970;2023-04-01T04:54:17;26.80;26.40
21085;DHT22;34247;50.064;19.970;2023-04-01T04:55:21;26.80;26.30
21085;DHT22;34247;50.064;19.970;2023-04-01T04:56:25;26.80;26.30
21085;DHT22;34247;50.064;19.970;2023-04-01T04:57:29;26.80;26.30
21085;DHT22;34247;50.064;19.970;2023-04-01T04:58:33;26.80;26.90
21085;DHT22;34247;50.064;19.970;2023-04-01T04:59:37;26.80;26.30
21085;DHT22;34247;50.064;19.970;2023-04-01T05:00:42;26.80;26.30
21085;DHT22;34247;50.064;19.970;2023-04-01T05:01:46;26.90;26.40
21085;DHT22;34247;50.064;19.970;2023-04-01T05:02:50;26.80;26.30
21085;DHT22;34247;50.064;19.970;2023-04-01T05:03:54;26.80;26.30
21085;DHT22;34247;50.064;19.970;2023-04-01T05:05:01;26.80;26.30
21085;DHT22;34247;50.064;19.970;2023-04-01T05:06:09;26.90;26.40
21085;DHT22;34247;50.064;19.970;2023-04-01T05:07:18;26.90;26.30
21085;DHT22;34247;50.064;19.970;2023-04-01T05:08:22;27.00;26.30
21085;DHT22;34247;50.064;19.970;2023-04-01T05:09:27;27.00;26.20
21085;DHT22;34247;50.064;19.970;2023-04-01T05:10:33;26.90;26.20
21085;DHT22;34247;50.064;19.970;2023-04-01T05:11:37;26.90;26.20
21085;DHT22;34247;50.064;19.970;2023-04-01T05:12:41;26.80;26.30
21085;DHT22;34247;50.064;19.970;2023-04-01T05:13:48;27.00;26.40
21085;DHT22;34247;50.064;19.970;2023-04-01T05:14:53;27.00;26.30
21085;DHT22;34247;50.064;19.970;2023-04-01T05:15:57;27.00;26.20
21085;DHT22;34247;50.064;19.970;2023-04-01T05:17:01;27.00;26.20
21085;DHT22;34247;50.064;19.970;2023-04-01T05:18:11;26.90;26.20
21085;DHT22;34247;50.064;19.970;2023-04-01T05:19:14;26.90;26.30
21085;DHT22;34247;50.064;19.970;2023-04-01T05:20:18;26.90;26.30
21085;DHT22;34247;50.064;19.970;2023-04-01T05:21:22;26.90;26.30
21085;DHT22;34247;50.064;19.970;2023-04-01T05:22:26;26.90;26.30
21085;DHT22;34247;50.064;19.970;2023-04-01T05:23:31;26.80;26.30
21085;DHT22;34247;50.064;19.970;2023-04-01T05:24:36;26.80;26.40
21085;DHT22;34247;50.064;19.970;2023-04-01T05:25:43;26.80;26.40
21085;DHT22;34247;50.064;19.970;2023-04-01T05:26:48;26.80;26.40
21085;DHT22;34247;50.064;19.970;2023-04-01T05:27:52;26.80;26.40
21085;DHT22;34247;50.064;19.970;2023-04-01T05:28:57;26.90;26.50
21085;DHT22;34247;50.064;19.970;2023-04-01T05:30:02;26.80;26.40
21085;DHT22;34247;50.064;19.970;2023-04-01T05:31:19;26.90;26.60
21085;DHT22;34247;50.064;19.970;2023-04-01T05:32:23;27.00;26.60
21085;DHT22;34247;50.064;19.970;2023-04-01T05:33:29;27.00;26.60
21085;DHT22;34247;50.064;19.970;2023-04-01T05:34:34;26.90;26.60
21085;DHT22;34247;50.064;19.970;2023-04-01T05:35:38;26.90;26.60
21085;DHT22;34247;50.064;19.970;2023-04-01T05:36:44;26.90;26.60
21085;DHT22;34247;50.064;19.970;2023-04-01T05:37:48;26.90;26.70
21085;DHT22;34247;50.064;19.970;2023-04-01T05:38:55;26.90;26.80
21085;DHT22;34247;50.064;19.970;2023-04-01T05:39:59;26.90;26.90
21085;DHT22;34247;50.064;19.970;2023-04-01T05:41:03;26.90;27.00
21085;DHT22;34247;50.064;19.970;2023-04-01T05:42:12;27.00;27.00
21085;DHT22;34247;50.064;19.970;2023-04-01T05:43:17;27.00;26.90
21085;DHT22;34247;50.064;19.970;2023-04-01T05:44:21;27.20;26.90
21085;DHT22;34247;50.064;19.970;2023-04-01T05:45:25;27.30;26.60
21085;DHT22;34247;50.064;19.970;2023-04-01T05:46:32;27.40;26.50
21085;DHT22;34247;50.064;19.970;2023-04-01T05:47:36;27.50;26.50
21085;DHT22;34247;50.064;19.970;2023-04-01T05:48:41;27.50;26.40
21085;DHT22;34247;50.064;19.970;2023-04-01T05:49:46;27.60;26.40
21085;DHT22;34247;50.064;19.970;2023-04-01T05:50:50;27.80;26.20
21085;DHT22;34247;50.064;19.970;2023-04-01T05:51:54;27.70;26.10
21085;DHT22;34247;50.064;19.970;2023-04-01T05:52:58;27.80;26.10
21085;DHT22;34247;50.064;19.970;2023-04-01T05:54:04;27.70;26.10
21085;DHT22;34247;50.064;19.970;2023-04-01T05:55:10;27.60;26.10
21085;DHT22;34247;50.064;19.970;2023-04-01T05:56:14;27.60;26.20
21085;DHT22;34247;50.064;19.970;2023-04-01T05:57:18;27.60;26.20
21085;DHT22;34247;50.064;19.970;2023-04-01T05:58:23;27.60;26.30
21085;DHT22;34247;50.064;19.970;2023-04-01T05:59:28;27.60;26.30
21085;DHT22;34247;50.064;19.970;2023-04-01T06:00:32;27.60;26.40
21085;DHT22;34247;50.064;19.970;2023-04-01T06:01:36;27.60;26.40
21085;DHT22;34247;50.064;19.970;2023-04-01T06:02:39;27.70;26.30
21085;DHT22;34247;50.064;19.970;2023-04-01T06:03:45;27.70;26.20
21085;DHT22;34247;50.064;19.970;2023-04-01T06:04:59;27.70;26.10
21085;DHT22;34247;50.064;19.970;2023-04-01T06:06:19;27.70;26.20
21085;DHT22;34247;50.064;19.970;2023-04-01T06:07:28;27.60;26.30
21085;DHT22;34247;50.064;19.970;2023-04-01T06:08:33;27.60;26.30
21085;DHT22;34247;50.064;19.970;2023-04-01T06:09:37;27.60;26.40
21085;DHT22;34247;50.064;19.970;2023-04-01T06:15:40;27.70;26.30
21085;DHT22;34247;50.064;19.970;2023-04-01T06:20:07;27.60;26.40
21085;DHT22;34247;50.064;19.970;2023-04-01T06:23:06;27.60;26.50
21085;DHT22;34247;50.064;19.970;2023-04-01T06:24:46;27.50;26.50
21085;DHT22;34247;50.064;19.970;2023-04-01T06:30:47;27.70;26.30
21085;DHT22;34247;50.064;19.970;2023-04-01T06:35:20;27.70;26.20
21085;DHT22;34247;50.064;19.970;2023-04-01T06:49:57;27.80;26.60
21085;DHT22;34247;50.064;19.970;2023-04-01T06:54:11;28.40;25.80
21085;DHT22;34247;50.064;19.970;2023-04-01T06:57:34;28.80;25.50
21085;DHT22;34247;50.064;19.970;2023-04-01T06:58:50;29.10;25.00
21085;DHT22;34247;50.064;19.970;2023-04-01T07:00:00;29.20;24.60
21085;DHT22;34247;50.064;19.970;2023-04-01T07:02:03;29.20;24.40
21085;DHT22;34247;50.064;19.970;2023-04-01T07:02:55;29.30;24.20
21085;DHT22;34247;50.064;19.970;2023-04-01T07:04:16;29.30;24.20
21085;DHT22;34247;50.064;19.970;2023-04-01T07:05:22;29.30;24.20
21085;DHT22;34247;50.064;19.970;2023-04-01T07:06:50;29.40;24.10
21085;DHT22;34247;50.064;19.970;2023-04-01T07:08:00;29.40;24.00
21085;DHT22;34247;50.064;19.970;2023-04-01T07:09:18;29.50;23.90
21085;DHT22;34247;50.064;19.970;2023-04-01T07:10:47;29.50;23.80
21085;DHT22;34247;50.064;19.970;2023-04-01T07:13:49;29.40;23.90
21085;DHT22;34247;50.064;19.970;2023-04-01T07:14:58;29.30;24.00
21085;DHT22;34247;50.064;19.970;2023-04-01T07:16:35;29.30;24.10
21085;DHT22;34247;50.064;19.970;2023-04-01T07:17:46;29.20;24.20
21085;DHT22;34247;50.064;19.970;2023-04-01T07:20:30;29.20;24.00
21085;DHT22;34247;50.064;19.970;2023-04-01T07:21:44;29.20;24.00
21085;DHT22;34247;50.064;19.970;2023-04-01T07:22:56;29.20;23.90
21085;DHT22;34247;50.064;19.970;2023-04-01T07:24:11;29.20;24.00
21085;DHT22;34247;50.064;19.970;2023-04-01T07:25:27;29.00;24.00
21085;DHT22;34247;50.064;19.970;2023-04-01T07:26:34;29.00;24.00
21085;DHT22;34247;50.064;19.970;2023-04-01T07:27:38;29.00;24.10
21085;DHT22;34247;50.064;19.970;2023-04-01T07:28:43;29.00;24.10
21085;DHT22;34247;50.064;19.970;2023-04-01T07:29:47;29.00;24.00
21085;DHT22;34247;50.064;19.970;2023-04-01T07:34:26;28.90;24.00
21085;DHT22;34247;50.064;19.970;2023-04-01T07:36:14;28.90;24.10
21085;DHT22;34247;50.064;19.970;2023-04-01T07:44:19;28.50;24.60
21085;DHT22;34247;50.064;19.970;2023-04-01T07:50:23;28.60;24.70
21085;DHT22;34247;50.064;19.970;2023-04-01T07:55:05;28.30;25.00
21085;DHT22;34247;50.064;19.970;2023-04-01T07:59:49;28.60;24.80
21085;DHT22;34247;50.064;19.970;2023-04-01T08:02:24;28.50;24.70
21085;DHT22;34247;50.064;19.970;2023-04-01T08:03:16;28.50;24.70
21085;DHT22;34247;50.064;19.970;2023-04-01T08:08:46;28.50;24.60
21085;DHT22;34247;50.064;19.970;2023-04-01T08:15:21;28.50;24.70
21085;DHT22;34247;50.064;19.970;2023-04-01T08:17:02;28.80;24.60
21085;DHT22;34247;50.064;19.970;2023-04-01T08:18:52;28.70;24.40
21085;DHT22;34247;50.064;19.970;2023-04-01T08:21:45;28.70;24.60
21085;DHT22;34247;50.064;19.970;2023-04-01T08:23:10;28.70;24.50
21085;DHT22;34247;50.064;19.970;2023-04-01T08:24:43;28.70;24.40
21085;DHT22;34247;50.064;19.970;2023-04-01T08:27:45;28.60;24.50
21085;DHT22;34247;50.064;19.970;2023-04-01T08:32:39;28.70;24.40
21085;DHT22;34247;50.064;19.970;2023-04-01T08:33:53;28.80;24.30
21085;DHT22;34247;50.064;19.970;2023-04-01T08:35:30;28.90;24.20
21085;DHT22;34247;50.064;19.970;2023-04-01T08:37:08;28.90;24.10
21085;DHT22;34247;50.064;19.970;2023-04-01T08:38:31;28.90;24.00
21085;DHT22;34247;50.064;19.970;2023-04-01T08:39:46;28.90;24.10
21085;DHT22;34247;50.064;19.970;2023-04-01T08:42:51;28.90;24.20
21085;DHT22;34247;50.064;19.970;2023-04-01T08:48:28;28.70;24.30
21085;DHT22;34247;50.064;19.970;2023-04-01T09:06:31;28.90;24.20
21085;DHT22;34247;50.064;19.970;2023-04-01T09:08:18;29.10;24.30
21085;DHT22;34247;50.064;19.970;2023-04-01T09:11:19;29.30;24.10
21085;DHT22;34247;50.064;19.970;2023-04-01T09:26:24;30.00;23.50
21085;DHT22;34247;50.064;19.970;2023-04-01T09:37:35;30.10;23.10
21085;DHT22;34247;50.064;19.970;2023-04-01T09:38:47;30.10;23.00
21085;DHT22;34247;50.064;19.970;2023-04-01T09:46:20;30.10;23.00
21085;DHT22;34247;50.064;19.970;2023-04-01T09:47:55;30.10;22.90
21085;DHT22;34247;50.064;19.970;2023-04-01T10:04:47;30.00;23.60
21085;DHT22;34247;50.064;19.970;2023-04-01T10:06:45;29.90;23.60
21085;DHT22;34247;50.064;19.970;2023-04-01T10:14:25;29.60;24.00
21085;DHT22;34247;50.064;19.970;2023-04-01T10:16:03;29.40;24.20
21085;DHT22;34247;50.064;19.970;2023-04-01T10:36:57;29.20;24.90
21085;DHT22;34247;50.064;19.970;2023-04-01T10:38:50;29.20;24.90
21085;DHT22;34247;50.064;19.970;2023-04-01T10:41:48;29.10;25.10
21085;DHT22;34247;50.064;19.970;2023-04-01T10:43:17;29.30;25.10
21085;DHT22;34247;50.064;19.970;2023-04-01T10:46:46;29.00;24.90
21085;DHT22;34247;50.064;19.970;2023-04-01T10:52:12;28.90;25.20
21085;DHT22;34247;50.064;19.970;2023-04-01T11:14:58;29.40;24.30
21085;DHT22;34247;50.064;19.970;2023-04-01T11:23:14;29.50;24.80